Time;durP1;ratioP1;P1;durP2;ratioP2;P2;SDS_P1;SDS_P2;PMS_P1;PMS_P2;Temp;Humidity;BMP_temperature;BMP_pressure;BME280_temperature;BME280_humidity;BME280_pressure;Samples;Min_cycle;Max_cycle;Signal;HPM_P1;HPM_P2
2021/10/26 00:01:56;;;;;;;23.73;17.10;;;;;;;8.98;70.54;100249.38;10361525;28;20125;-67
2021/10/26 00:06:58;;;;;;;23.27;16.10;;;;;;;9.11;70.70;100245.25;10346119;28;20050;-66
2021/10/26 00:12:02;;;;;;;20.42;14.05;;;;;;;9.24;70.70;100235.06;10343065;28;20057;-67
2021/10/26 00:17:03;;;;;;;18.98;14.45;;;;;;;9.33;70.46;100240.69;10343984;28;20115;-66
2021/10/26 00:22:05;;;;;;;15.18;11.73;;;;;;;9.42;70.54;100245.41;10345957;28;20468;-66
2021/10/26 00:27:07;;;;;;;17.27;10.48;;;;;;;9.50;70.68;100248.50;10343194;28;20081;-67
2021/10/26 00:32:08;;;;;;;15.43;10.30;;;;;;;9.59;70.73;100242.81;10344125;28;20053;-66
2021/10/26 00:37:11;;;;;;;15.88;8.90;;;;;;;9.70;70.63;100242.31;10345117;28;20049;-66
2021/10/26 00:42:13;;;;;;;16.73;10.10;;;;;;;9.76;70.45;100231.53;10344498;28;20133;-66
2021/10/26 00:47:14;;;;;;;15.55;10.05;;;;;;;9.85;70.21;100235.47;10343334;28;20046;-66
2021/10/26 00:52:17;;;;;;;15.48;8.65;;;;;;;9.86;70.21;100237.13;10343260;28;20059;-66
2021/10/26 00:57:25;;;;;;;12.10;7.78;;;;;;;9.84;70.32;100238.97;10344447;28;20060;-67
2021/10/26 01:02:27;;;;;;;13.90;7.72;;;;;;;9.88;70.35;100246.59;10344101;28;20064;-66
2021/10/26 01:07:29;;;;;;;12.43;6.90;;;;;;;10.02;70.09;100244.09;10351036;28;20580;-66
2021/10/26 01:12:31;;;;;;;12.88;6.70;;;;;;;10.07;69.84;100243.84;10380451;28;21293;-67
2021/10/26 01:17:32;;;;;;;10.70;6.70;;;;;;;10.10;69.86;100248.91;10343877;28;20514;-66
2021/10/26 01:22:39;;;;;;;11.50;6.60;;;;;;;10.06;69.69;100247.38;10342876;28;20566;-66
2021/10/26 01:27:45;;;;;;;12.27;7.00;;;;;;;10.02;69.78;100246.72;10343024;28;20046;-66
2021/10/26 01:32:47;;;;;;;9.38;6.45;;;;;;;9.94;69.82;100240.19;10342451;28;20053;-66
2021/10/26 01:37:49;;;;;;;12.30;7.55;;;;;;;9.86;70.02;100240.59;10343478;28;20535;-66
2021/10/26 01:42:51;;;;;;;12.25;7.00;;;;;;;9.87;69.79;100247.50;10342787;28;20331;-66
2021/10/26 01:47:53;;;;;;;10.85;6.28;;;;;;;9.79;69.87;100246.22;10357950;28;20050;-66
2021/10/26 01:52:56;;;;;;;12.32;6.60;;;;;;;9.69;69.93;100250.22;10343054;28;20060;-66
2021/10/26 01:57:57;;;;;;;10.90;6.20;;;;;;;9.55;70.10;100262.19;10342525;28;20077;-66
2021/10/26 02:02:59;;;;;;;10.98;6.32;;;;;;;9.48;70.14;100266.00;10351890;28;20053;-66
2021/10/26 02:08:01;;;;;;;11.07;6.00;;;;;;;9.50;70.32;100260.72;10358485;28;20448;-66
2021/10/26 02:13:02;;;;;;;9.45;5.95;;;;;;;9.49;70.04;100259.88;10357740;28;20053;-66
2021/10/26 02:18:04;;;;;;;9.70;5.80;;;;;;;9.38;70.25;100256.13;10357374;28;20137;-67
2021/10/26 02:23:06;;;;;;;11.18;6.07;;;;;;;9.34;70.57;100257.19;10358060;28;20053;-66
2021/10/26 02:28:07;;;;;;;8.55;5.78;;;;;;;9.35;70.56;100258.88;10356878;28;20060;-66
2021/10/26 02:33:11;;;;;;;9.23;5.78;;;;;;;9.46;70.28;100257.41;10355568;28;20521;-66
2021/10/26 02:38:12;;;;;;;9.07;5.90;;;;;;;9.48;70.17;100267.78;10357547;28;20045;-66
2021/10/26 02:43:14;;;;;;;10.73;5.68;;;;;;;9.47;70.00;100277.38;10357618;28;20046;-66
2021/10/26 02:48:16;;;;;;;9.82;6.00;;;;;;;9.52;69.83;100270.16;10357231;28;20054;-66
2021/10/26 02:53:17;;;;;;;11.30;6.32;;;;;;;9.57;69.55;100273.38;10355844;28;20640;-66
2021/10/26 02:58:20;;;;;;;11.05;6.18;;;;;;;9.57;69.61;100273.38;10370675;28;20066;-66
2021/10/26 03:03:21;;;;;;;9.32;6.03;;;;;;;9.61;69.64;100276.69;10353073;28;20133;-66
2021/10/26 03:08:23;;;;;;;12.10;8.00;;;;;;;9.51;69.49;100278.91;10351207;28;20137;-66
2021/10/26 03:13:24;;;;;;;14.77;9.15;;;;;;;9.43;69.32;100291.50;10347751;28;20216;-67
2021/10/26 03:18:26;;;;;;;10.77;6.75;;;;;;;9.36;69.43;100277.06;10347962;28;20054;-66
2021/10/26 03:23:28;;;;;;;11.35;6.95;;;;;;;9.32;69.71;100285.94;10363531;28;20313;-66
2021/10/26 03:28:30;;;;;;;14.05;6.80;;;;;;;9.22;69.81;100287.31;10348425;28;20080;-66
2021/10/26 03:33:32;;;;;;;8.93;6.40;;;;;;;9.15;69.98;100288.56;10347780;28;20422;-66
2021/10/26 03:38:35;;;;;;;12.18;6.95;;;;;;;9.17;70.12;100301.53;10348179;28;20049;-66
2021/10/26 03:43:37;;;;;;;10.77;6.32;;;;;;;9.25;70.30;100289.81;10345990;28;20050;-66
2021/10/26 03:48:39;;;;;;;10.93;7.03;;;;;;;9.34;70.13;100286.72;10347145;28;20052;-66
2021/10/26 03:53:41;;;;;;;13.82;8.60;;;;;;;9.32;70.05;100292.97;10345923;28;20064;-66
2021/10/26 03:58:43;;;;;;;15.18;9.38;;;;;;;9.21;70.04;100287.41;10343132;28;20053;-66
2021/10/26 04:03:44;;;;;;;12.80;8.25;;;;;;;9.13;70.46;100293.00;10346585;28;20128;-67
2021/10/26 04:13:48;;;;;;;11.90;6.70;;;;;;;9.24;70.43;100303.75;10344488;28;20525;-66
2021/10/26 04:18:50;;;;;;;29.38;21.20;;;;;;;9.22;70.48;100296.94;10348649;28;20053;-67
2021/10/26 04:23:52;;;;;;;12.38;5.78;;;;;;;9.29;70.42;100299.16;10354119;28;20046;-67
2021/10/26 04:28:53;;;;;;;9.73;6.10;;;;;;;9.40;70.39;100307.31;10344907;28;20046;-66
2021/10/26 04:33:55;;;;;;;9.40;5.05;;;;;;;9.51;70.29;100312.84;10345738;28;20062;-66
2021/10/26 04:38:57;;;;;;;11.15;5.05;;;;;;;9.69;70.08;100318.13;10354838;28;20037;-67
2021/10/26 04:43:58;;;;;;;8.13;4.78;;;;;;;9.71;69.96;100319.72;10343101;28;20053;-66
2021/10/26 04:49:01;;;;;;;10.10;4.95;;;;;;;9.79;69.94;100327.19;10343039;28;20081;-67
2021/10/26 04:54:02;;;;;;;8.10;4.50;;;;;;;9.79;69.77;100325.41;10345367;28;20156;-66
2021/10/26 04:59:04;;;;;;;9.90;4.20;;;;;;;9.81;69.60;100325.34;10345419;28;20276;-66
2021/10/26 05:04:06;;;;;;;9.98;4.53;;;;;;;9.89;69.63;100333.66;10342128;28;20046;-67
2021/10/26 05:09:08;;;;;;;9.27;4.60;;;;;;;9.96;69.48;100335.88;10346919;28;20085;-66
2021/10/26 05:14:10;;;;;;;8.07;4.38;;;;;;;9.97;69.43;100334.94;10344085;28;20636;-66
2021/10/26 05:19:12;;;;;;;7.55;4.07;;;;;;;9.99;69.34;100340.09;10343708;28;20509;-66
2021/10/26 05:24:14;;;;;;;11.82;3.95;;;;;;;10.04;69.23;100336.31;10376315;28;20045;-67
2021/10/26 05:29:16;;;;;;;10.15;4.30;;;;;;;10.06;69.27;100336.22;10344527;28;20074;-66
2021/10/26 05:34:17;;;;;;;5.97;3.83;;;;;;;10.08;69.08;100334.38;10352992;28;20047;-66
2021/10/26 05:39:19;;;;;;;9.05;4.10;;;;;;;10.13;68.83;100350.69;10364528;28;20057;-67
2021/10/26 05:44:21;;;;;;;10.93;4.57;;;;;;;10.14;68.82;100339.28;10356920;28;20053;-66
2021/10/26 05:49:22;;;;;;;8.75;4.07;;;;;;;10.07;68.89;100351.00;10356835;28;20056;-66
2021/10/26 05:54:25;;;;;;;9.45;4.38;;;;;;;10.09;68.81;100354.38;10357592;28;20107;-67
2021/10/26 05:59:26;;;;;;;8.63;4.70;;;;;;;10.17;68.54;100354.84;10356242;28;20587;-67
2021/10/26 06:04:28;;;;;;;10.48;5.05;;;;;;;10.21;68.43;100359.84;10354595;28;20431;-66
2021/10/26 06:09:33;;;;;;;10.77;5.50;;;;;;;10.19;68.40;100356.44;10355105;28;20523;-67
2021/10/26 06:14:34;;;;;;;8.55;4.90;;;;;;;10.20;68.51;100360.75;10354953;28;20064;-67
2021/10/26 06:19:36;;;;;;;11.68;7.50;;;;;;;10.26;68.00;100370.03;10355011;28;20046;-67
2021/10/26 06:24:38;;;;;;;11.15;5.75;;;;;;;10.33;68.00;100374.88;10339692;28;20053;-66
2021/10/26 06:29:40;;;;;;;7.93;4.15;;;;;;;10.38;67.70;100377.22;10371403;28;20060;-66
2021/10/26 06:34:42;;;;;;;8.98;4.60;;;;;;;10.37;67.85;100379.03;10354873;28;20520;-67
2021/10/26 06:39:45;;;;;;;8.05;4.80;;;;;;;10.28;68.04;100394.31;10356893;28;20057;-66
2021/10/26 06:44:47;;;;;;;16.58;10.30;;;;;;;10.28;68.20;100402.16;10355580;28;20045;-66
2021/10/26 06:49:49;;;;;;;14.40;9.82;;;;;;;10.22;68.11;100400.72;10348685;28;20060;-67
2021/10/26 06:54:51;;;;;;;9.15;4.40;;;;;;;10.27;68.07;100408.34;10349706;28;20149;-66
2021/10/26 06:59:53;;;;;;;10.63;4.68;;;;;;;10.30;67.79;100414.25;10347240;28;20391;-67
2021/10/26 07:04:59;;;;;;;8.88;4.65;;;;;;;10.18;68.07;100416.63;10349961;28;20068;-68
2021/10/26 07:10:04;;;;;;;10.20;5.70;;;;;;;10.19;68.20;100431.41;10363857;28;20145;-67
2021/10/26 07:15:08;;;;;;;11.60;5.22;;;;;;;10.37;68.03;100441.78;10353454;28;20060;-68
2021/10/26 07:20:12;;;;;;;8.15;4.35;;;;;;;10.49;68.00;100450.75;10349948;28;20797;-68
2021/10/26 07:25:14;;;;;;;11.05;4.30;;;;;;;10.55;67.65;100450.44;10348602;28;20049;-68
2021/10/26 07:30:16;;;;;;;8.30;3.83;;;;;;;10.65;67.60;100451.66;10362313;28;20410;-67
2021/10/26 07:35:17;;;;;;;9.48;3.70;;;;;;;10.87;67.34;100465.31;10348304;28;20045;-67
2021/10/26 07:40:19;;;;;;;9.60;3.85;;;;;;;11.17;66.69;100471.56;10347435;28;20316;-68
2021/10/26 07:45:21;;;;;;;8.32;3.60;;;;;;;11.51;65.80;100472.34;10348075;28;20053;-67
2021/10/26 07:50:23;;;;;;;9.05;3.55;;;;;;;11.49;66.13;100474.22;10347234;28;20056;-68
2021/10/26 07:55:25;;;;;;;9.38;4.40;;;;;;;11.30;66.38;100470.00;10347342;28;20050;-67
2021/10/26 08:00:27;;;;;;;8.63;4.70;;;;;;;10.96;66.63;100457.00;10346290;28;20057;-67
2021/10/26 08:05:28;;;;;;;9.77;4.95;;;;;;;10.88;66.72;100480.09;10361463;28;20485;-67
2021/10/26 08:10:30;;;;;;;8.88;4.15;;;;;;;10.80;66.75;100476.19;10346407;28;20056;-67
2021/10/26 08:15:32;;;;;;;12.30;7.05;;;;;;;10.88;66.95;100472.25;10347224;28;20057;-67
2021/10/26 08:20:33;;;;;;;14.70;7.78;;;;;;;11.52;65.92;100463.59;10347303;28;20626;-67
2021/10/26 08:25:39;;;;;;;9.32;4.82;;;;;;;11.84;65.07;100466.09;10360941;28;20132;-67
2021/10/26 08:30:51;;;;;;;7.22;3.65;;;;;;;12.10;64.07;100473.31;10345470;28;20049;-67
2021/10/26 08:35:53;;;;;;;9.20;3.40;;;;;;;12.24;63.68;100475.16;10346729;28;20053;-67
2021/10/26 08:40:57;;;;;;;7.18;3.08;;;;;;;12.56;62.77;100457.53;10343672;28;20514;-67
2021/10/26 08:46:03;;;;;;;6.45;3.22;;;;;;;12.77;62.08;100461.50;10344646;28;20083;-67
2021/10/26 08:51:05;;;;;;;8.02;3.28;;;;;;;12.68;62.00;100465.53;10344633;28;20414;-74
2021/10/26 08:56:07;;;;;;;5.43;2.70;;;;;;;12.72;61.78;100456.53;10344581;28;20406;-76
2021/10/26 09:01:09;;;;;;;6.70;2.50;;;;;;;12.49;61.90;100457.06;10341038;28;20041;-76
2021/10/26 09:06:22;;;;;;;5.90;2.50;;;;;;;12.50;61.85;100450.88;10348184;28;20434;-76
2021/10/26 09:11:28;;;;;;;7.90;2.63;;;;;;;12.48;61.78;100458.00;10342598;28;20291;-76
2021/10/26 09:16:50;;;;;;;6.00;2.53;;;;;;;12.57;61.77;100461.88;10333406;28;20046;-72
2021/10/26 09:22:00;;;;;;;4.95;2.55;;;;;;;12.55;61.47;100458.50;10340902;28;20411;-71
2021/10/26 09:27:04;;;;;;;4.78;2.40;;;;;;;12.55;61.88;100471.59;10342283;28;20049;-70
2021/10/26 09:32:18;;;;;;;4.88;2.40;;;;;;;12.56;61.17;100468.88;10333052;28;20077;-65
2021/10/26 09:37:20;;;;;;;7.40;2.58;;;;;;;12.87;60.84;100462.63;10333075;28;20042;-71
2021/10/26 09:42:23;;;;;;;6.32;2.30;;;;;;;13.06;60.19;100465.84;10338360;28;20050;-71
2021/10/26 09:47:28;;;;;;;5.35;2.20;;;;;;;13.13;59.95;100468.94;10338999;28;20069;-71
2021/10/26 09:52:31;;;;;;;3.95;1.90;;;;;;;13.27;59.37;100466.31;10336686;28;20046;-71
2021/10/26 09:57:34;;;;;;;5.22;1.95;;;;;;;13.50;58.83;100482.34;10342254;28;20046;-72
2021/10/26 10:02:36;;;;;;;4.15;1.80;;;;;;;13.38;57.99;100485.69;10337884;28;20080;-71
2021/10/26 10:07:38;;;;;;;5.05;2.60;;;;;;;13.76;57.19;100491.19;10340847;28;20133;-71
2021/10/26 10:12:49;;;;;;;4.78;2.30;;;;;;;13.97;56.06;100491.59;10339614;28;20161;-72
2021/10/26 10:17:50;;;;;;;4.85;2.13;;;;;;;14.02;56.23;100500.03;10340628;28;20058;-71
2021/10/26 10:22:54;;;;;;;4.07;1.80;;;;;;;14.24;55.55;100488.03;10344544;28;20133;-72
2021/10/26 10:27:57;;;;;;;4.40;1.70;;;;;;;14.48;54.97;100490.78;10349520;28;20049;-72
2021/10/26 10:32:59;;;;;;;5.13;1.80;;;;;;;14.07;55.14;100477.75;10348658;28;20056;-72
2021/10/26 10:38:02;;;;;;;4.55;2.00;;;;;;;13.81;55.28;100483.00;10348922;28;20157;-72
2021/10/26 10:43:03;;;;;;;3.55;1.70;;;;;;;13.77;56.06;100482.38;10341250;28;20054;-71
2021/10/26 10:48:28;;;;;;;4.60;2.17;;;;;;;13.66;54.70;100487.44;10346349;28;20156;-72
2021/10/26 10:53:33;;;;;;;4.32;2.25;;;;;;;13.44;55.25;100474.84;10343543;28;20141;-72
2021/10/26 10:58:40;;;;;;;3.53;1.83;;;;;;;13.70;55.19;100470.53;10347792;28;20501;-72
2021/10/26 11:03:42;;;;;;;3.67;2.05;;;;;;;13.57;54.99;100469.66;10348843;28;20081;-72
2021/10/26 11:08:47;;;;;;;4.07;2.08;;;;;;;13.51;55.05;100470.03;10349026;28;21073;-72
2021/10/26 11:14:06;;;;;;;4.15;2.10;;;;;;;13.25;55.39;100466.38;10347175;28;20491;-72
2021/10/26 11:19:10;;;;;;;5.60;2.03;;;;;;;13.32;55.44;100470.31;10347264;28;20060;-71
2021/10/26 11:24:13;;;;;;;5.28;1.90;;;;;;;13.14;55.52;100460.09;10348530;28;20046;-72
2021/10/26 11:29:28;;;;;;;4.13;1.92;;;;;;;13.23;55.22;100464.81;10347779;28;20073;-72
2021/10/26 11:34:34;;;;;;;3.72;1.80;;;;;;;13.53;54.86;100458.50;10347336;28;20164;-72
2021/10/26 11:39:38;;;;;;;5.80;1.73;;;;;;;13.78;54.50;100455.97;10348140;28;20050;-72
2021/10/26 11:44:40;;;;;;;2.50;1.40;;;;;;;13.84;53.43;100454.72;10347175;28;20140;-72
2021/10/26 11:49:41;;;;;;;3.40;1.60;;;;;;;13.92;52.97;100451.63;10347819;28;20536;-72
2021/10/26 11:54:51;;;;;;;3.00;1.60;;;;;;;13.92;52.59;100449.84;10347364;28;20068;-71
2021/10/26 12:00:01;;;;;;;4.22;2.20;;;;;;;14.16;51.05;100444.75;10345250;28;20481;-72
2021/10/26 12:05:03;;;;;;;3.73;1.70;;;;;;;14.11;51.75;100446.81;10346624;28;20045;-72
2021/10/26 12:10:08;;;;;;;4.32;1.90;;;;;;;14.25;51.72;100450.22;10345990;28;20571;-72
2021/10/26 12:15:11;;;;;;;4.53;1.70;;;;;;;14.12;51.49;100451.16;10346690;28;20065;-72
2021/10/26 12:20:19;;;;;;;3.30;1.60;;;;;;;14.06;51.26;100454.19;10346091;28;20056;-72
2021/10/26 12:25:25;;;;;;;3.67;1.70;;;;;;;14.20;50.98;100452.34;10345147;28;20046;-72
2021/10/26 12:30:33;;;;;;;3.90;2.08;;;;;;;14.55;49.46;100442.91;10345428;28;20128;-72
2021/10/26 12:35:53;;;;;;;4.35;1.70;;;;;;;14.81;48.14;100446.44;10342949;28;20139;-71
2021/10/26 12:40:57;;;;;;;7.65;2.22;;;;;;;14.90;48.92;100437.06;10345905;28;20049;-72
2021/10/26 12:46:18;;;;;;;4.93;1.70;;;;;;;14.91;48.52;100442.19;10343574;28;20216;-72
2021/10/26 12:51:20;;;;;;;4.60;1.80;;;;;;;14.93;48.78;100442.94;10342124;28;20063;-72
2021/10/26 12:56:27;;;;;;;2.92;1.50;;;;;;;15.04;48.21;100436.94;10343661;28;20052;-72
2021/10/26 13:01:30;;;;;;;4.47;1.67;;;;;;;15.16;48.14;100430.78;10344157;28;20049;-71
2021/10/26 13:06:38;;;;;;;3.42;1.70;;;;;;;15.07;48.16;100431.44;10338278;28;20077;-72
2021/10/26 13:11:42;;;;;;;3.10;1.42;;;;;;;15.36;48.47;100424.94;10356629;28;20057;-72
2021/10/26 13:16:46;;;;;;;3.88;1.63;;;;;;;15.40;47.64;100421.13;10343851;28;20466;-70
2021/10/26 13:21:50;;;;;;;4.20;1.50;;;;;;;15.45;47.57;100421.63;10341083;28;20124;-72
2021/10/26 13:26:51;;;;;;;3.50;1.50;;;;;;;15.68;47.79;100412.09;10343214;28;20512;-73
2021/10/26 13:31:53;;;;;;;3.95;1.73;;;;;;;15.50;47.35;100416.91;10343401;28;20198;-72
2021/10/26 13:36:55;;;;;;;5.78;1.70;;;;;;;15.36;47.74;100417.88;10343071;28;20046;-72
2021/10/26 13:41:57;;;;;;;4.97;1.98;;;;;;;15.45;47.59;100416.34;10344484;28;20507;-72
2021/10/26 13:46:59;;;;;;;3.35;1.48;;;;;;;15.57;47.40;100418.13;10342054;28;20570;-73
2021/10/26 13:52:02;;;;;;;4.75;1.60;;;;;;;15.62;47.24;100434.47;10344906;28;20054;-72
2021/10/26 13:57:04;;;;;;;3.90;1.60;;;;;;;15.81;47.03;100423.44;10346542;28;20052;-72
2021/10/26 14:02:06;;;;;;;6.03;1.63;;;;;;;15.91;46.75;100414.75;10351804;28;20410;-72
2021/10/26 14:07:09;;;;;;;4.53;1.63;;;;;;;15.64;46.70;100427.31;10349350;28;20192;-72
2021/10/26 14:12:12;;;;;;;4.03;1.65;;;;;;;15.59;47.34;100431.22;10342119;28;20534;-72
2021/10/26 14:17:15;;;;;;;4.75;1.70;;;;;;;15.55;47.27;100438.50;10345208;28;20056;-72
2021/10/26 14:22:20;;;;;;;5.72;1.80;;;;;;;15.46;47.29;100425.13;10348178;28;20049;-71
2021/10/26 14:27:21;;;;;;;4.07;1.65;;;;;;;15.32;47.93;100432.22;10348253;28;20302;-72
2021/10/26 14:32:23;;;;;;;3.72;1.60;;;;;;;15.29;47.73;100426.31;10348941;28;20049;-72
2021/10/26 14:53:12;;;;;;;5.93;1.70;;;;;;;14.97;48.53;100435.66;10348505;28;20053;-72
2021/10/26 14:58:14;;;;;;;4.00;1.58;;;;;;;14.78;48.37;100445.81;10347239;28;20045;-71
2021/10/26 15:03:16;;;;;;;6.20;1.60;;;;;;;14.47;49.06;100450.47;10379853;28;20136;-72
2021/10/26 15:08:18;;;;;;;5.65;1.58;;;;;;;14.42;49.29;100454.38;10348219;28;20056;-72
2021/10/26 15:13:33;;;;;;;3.80;1.60;;;;;;;14.32;49.53;100454.16;10345179;28;20562;-72
2021/10/26 15:18:36;;;;;;;4.32;1.73;;;;;;;14.35;49.64;100461.81;10345211;28;20474;-72
2021/10/26 15:34:02;;;;;;;6.38;2.03;;;;;;;13.71;51.26;100472.25;10343905;28;20148;-69
2021/10/26 15:39:05;;;;;;;5.70;1.70;;;;;;;13.57;51.60;100480.16;10344136;28;20056;-69
2021/10/26 15:44:07;;;;;;;4.68;1.77;;;;;;;13.43;52.22;100480.19;10343677;28;20045;-68
2021/10/26 15:49:10;;;;;;;3.90;1.60;;;;;;;13.33;52.88;100492.19;10340542;28;20045;-69
2021/10/26 15:54:13;;;;;;;7.47;1.60;;;;;;;13.23;52.61;100501.56;10344351;28;20135;-68
2021/10/26 15:59:15;;;;;;;5.82;1.90;;;;;;;13.04;52.81;100498.38;10341823;28;20042;-70
2021/10/26 16:04:17;;;;;;;5.22;1.70;;;;;;;12.78;53.52;100510.47;10344338;28;20443;-69
2021/10/26 16:09:22;;;;;;;7.75;1.85;;;;;;;12.68;53.71;100517.19;10339844;28;20045;-70
2021/10/26 16:14:29;;;;;;;9.90;1.90;;;;;;;12.55;53.72;100519.69;10334610;28;20467;-70
2021/10/26 16:19:30;;;;;;;4.82;1.70;;;;;;;12.44;54.34;100527.31;10340970;28;20050;-70
2021/10/26 16:24:32;;;;;;;6.13;1.80;;;;;;;12.30;54.33;100535.16;10338254;28;20919;-70
2021/10/26 16:29:37;;;;;;;4.25;1.63;;;;;;;12.16;54.69;100548.16;10338232;28;20199;-70
2021/10/26 16:34:40;;;;;;;6.55;2.17;;;;;;;12.03;55.21;100555.88;10336705;28;20399;-70
2021/10/26 16:39:44;;;;;;;5.68;1.85;;;;;;;11.94;55.52;100560.78;10341496;28;20068;-70
2021/10/26 16:44:51;;;;;;;4.45;1.85;;;;;;;11.89;55.63;100568.91;10337550;28;20135;-70
2021/10/26 16:49:53;;;;;;;4.40;1.73;;;;;;;11.87;55.80;100569.91;10341483;28;20050;-71
2021/10/26 16:54:55;;;;;;;6.70;2.22;;;;;;;11.75;56.33;100579.28;10341515;28;20199;-72
2021/10/26 16:59:57;;;;;;;7.28;2.00;;;;;;;11.66;56.43;100586.81;10335118;28;20663;-66
2021/10/26 17:05:04;;;;;;;7.10;3.72;;;;;;;11.60;56.64;100585.34;10342598;28;20048;-66
2021/10/26 17:10:07;;;;;;;8.57;2.78;;;;;;;11.57;56.66;100601.25;10341321;28;20038;-67
2021/10/26 17:15:18;;;;;;;7.68;2.25;;;;;;;11.62;56.61;100599.19;10332085;28;20308;-66
2021/10/26 17:20:20;;;;;;;8.18;2.47;;;;;;;11.66;56.89;100610.38;10336331;28;20156;-66
2021/10/26 17:25:22;;;;;;;7.25;2.63;;;;;;;11.78;56.50;100609.72;10341371;28;20058;-67
2021/10/26 17:30:23;;;;;;;4.68;2.30;;;;;;;11.85;56.62;100611.06;10341594;28;20056;-66
2021/10/26 17:35:26;;;;;;;7.78;2.20;;;;;;;11.87;56.49;100617.06;10341647;28;20060;-66
2021/10/26 17:40:38;;;;;;;6.40;2.78;;;;;;;11.88;56.63;100624.88;10341239;28;20046;-65
2021/10/26 17:45:40;;;;;;;5.95;2.63;;;;;;;11.87;56.59;100624.94;10341660;28;20053;-66
2021/10/26 17:50:41;;;;;;;7.10;2.65;;;;;;;11.81;56.68;100628.75;10341827;28;20064;-66
2021/10/26 17:55:44;;;;;;;8.60;3.10;;;;;;;11.71;57.06;100630.16;10340906;28;20058;-66
2021/10/26 18:00:53;;;;;;;6.50;2.80;;;;;;;11.58;57.27;100623.88;10340674;28;20060;-66
2021/10/26 18:05:55;;;;;;;13.02;4.85;;;;;;;11.40;57.66;100635.31;10333379;28;20413;-66
2021/10/26 18:10:58;;;;;;;8.18;4.00;;;;;;;11.29;58.24;100643.72;10341135;28;20053;-67
2021/10/26 18:16:02;;;;;;;7.72;3.38;;;;;;;11.20;58.34;100653.81;10337903;28;20085;-66
2021/10/26 18:21:05;;;;;;;6.65;2.70;;;;;;;11.09;58.54;100651.75;10337964;28;20046;-67
2021/10/26 18:26:07;;;;;;;6.93;2.45;;;;;;;10.99;59.07;100663.56;10341503;28;20125;-66
2021/10/26 18:31:10;;;;;;;6.18;2.92;;;;;;;10.91;59.29;100665.72;10339567;28;20129;-67
2021/10/26 18:36:13;;;;;;;7.15;2.50;;;;;;;10.79;59.77;100670.72;10341669;28;20058;-68
2021/10/26 18:41:19;;;;;;;8.85;2.70;;;;;;;10.67;60.04;100668.69;10340961;28;20078;-67
2021/10/26 18:46:22;;;;;;;6.57;2.83;;;;;;;10.63;60.30;100668.00;10347033;28;20123;-66
2021/10/26 18:51:24;;;;;;;7.65;2.75;;;;;;;10.54;60.50;100678.91;10347408;28;20331;-66
2021/10/26 18:56:27;;;;;;;6.47;2.58;;;;;;;10.41;61.08;100669.94;10347302;28;20053;-66
2021/10/26 19:01:29;;;;;;;7.78;2.63;;;;;;;10.35;61.41;100678.94;10349015;28;20057;-66
2021/10/26 19:06:33;;;;;;;7.18;2.70;;;;;;;10.35;61.37;100689.41;10347741;28;20761;-66
2021/10/26 19:11:35;;;;;;;5.25;2.47;;;;;;;10.31;61.59;100687.00;10347028;28;20383;-66
2021/10/26 19:16:36;;;;;;;7.00;3.15;;;;;;;10.29;61.72;100686.22;10347622;28;20061;-66
2021/10/26 19:21:39;;;;;;;9.70;3.20;;;;;;;10.15;62.03;100686.00;10345977;28;20057;-66
2021/10/26 19:26:41;;;;;;;5.97;2.80;;;;;;;10.06;62.48;100682.03;10348185;28;20060;-66
2021/10/26 19:31:42;;;;;;;9.35;3.92;;;;;;;10.01;62.47;100683.19;10348270;28;20777;-66
2021/10/26 19:36:44;;;;;;;8.90;4.80;;;;;;;9.87;62.87;100682.94;10346713;28;20053;-66
2021/10/26 19:41:46;;;;;;;8.20;3.58;;;;;;;9.80;63.12;100678.91;10346756;28;20108;-66
2021/10/26 19:46:49;;;;;;;10.68;3.40;;;;;;;9.74;63.22;100689.63;10346374;28;20578;-67
2021/10/26 19:51:52;;;;;;;10.80;5.75;;;;;;;9.70;63.46;100688.06;10346424;28;20046;-67
2021/10/26 19:56:54;;;;;;;13.77;6.10;;;;;;;9.68;63.57;100685.53;10347197;28;20109;-65
2021/10/26 20:01:56;;;;;;;9.80;5.07;;;;;;;9.64;63.72;100690.03;10346311;28;20132;-66
2021/10/26 20:06:58;;;;;;;11.70;4.63;;;;;;;9.61;63.95;100684.91;10345010;28;20046;-66
2021/10/26 20:12:03;;;;;;;12.75;5.55;;;;;;;9.55;64.14;100689.56;10345531;28;20349;-66
2021/10/26 20:17:05;;;;;;;9.43;4.93;;;;;;;9.52;64.14;100679.25;10344373;28;20414;-66
2021/10/26 20:32:22;;;;;;;8.55;2.85;;;;;;;9.52;64.38;100684.47;10345318;28;20050;-67
2021/10/26 20:37:24;;;;;;;8.48;3.30;;;;;;;9.51;64.17;100687.97;10345392;28;20068;-67
2021/10/26 20:42:26;;;;;;;7.28;3.30;;;;;;;9.45;64.34;100685.66;10343470;28;20096;-67
2021/10/26 20:47:28;;;;;;;7.15;3.15;;;;;;;9.45;64.27;100678.66;10342881;28;20449;-67
2021/10/26 20:52:35;;;;;;;7.07;3.28;;;;;;;9.42;64.33;100691.84;10344027;28;20192;-67
2021/10/26 20:57:37;;;;;;;13.25;3.40;;;;;;;9.37;64.31;100680.75;10344477;28;20356;-67
2021/10/26 21:02:38;;;;;;;9.07;2.88;;;;;;;9.34;64.46;100700.94;10344102;28;20057;-66
2021/10/26 21:07:40;;;;;;;12.00;3.25;;;;;;;9.31;64.33;100709.72;10344399;28;20481;-66
2021/10/26 21:12:42;;;;;;;9.27;3.28;;;;;;;9.32;64.56;100710.59;10342334;28;20474;-66
2021/10/26 21:17:43;;;;;;;6.70;3.10;;;;;;;9.24;64.63;100710.06;10343763;28;20054;-66
2021/10/26 21:22:45;;;;;;;9.32;3.35;;;;;;;9.20;64.64;100713.72;10342693;28;20083;-66
2021/10/26 21:27:47;;;;;;;7.72;3.30;;;;;;;9.15;64.82;100719.13;10342028;28;20576;-66
2021/10/26 21:32:49;;;;;;;10.05;4.15;;;;;;;9.11;64.91;100707.13;10340487;28;20157;-65
2021/10/26 21:42:59;;;;;;;8.32;4.05;;;;;;;9.03;65.18;100714.41;10343317;28;20137;-66
2021/10/26 21:48:01;;;;;;;6.97;3.03;;;;;;;8.98;65.21;100713.72;10343048;28;20073;-66
2021/10/26 21:53:03;;;;;;;6.68;3.00;;;;;;;8.94;65.39;100711.31;10336485;28;20050;-66
2021/10/26 21:58:05;;;;;;;7.47;2.90;;;;;;;8.93;65.29;100720.91;10340289;28;20635;-66
2021/10/26 22:03:12;;;;;;;10.45;2.95;;;;;;;8.84;65.59;100721.28;10341495;28;20637;-66
2021/10/26 22:08:14;;;;;;;8.10;3.33;;;;;;;8.76;65.97;100723.34;10340276;28;20049;-66
2021/10/26 22:13:16;;;;;;;9.20;3.85;;;;;;;8.73;65.87;100724.31;10339409;28;20161;-66
2021/10/26 22:18:17;;;;;;;8.15;3.50;;;;;;;8.69;66.03;100712.28;10342631;28;20072;-66
2021/10/26 22:23:19;;;;;;;12.32;4.25;;;;;;;8.73;65.87;100718.22;10347915;28;20073;-66
2021/10/26 22:28:21;;;;;;;11.25;3.67;;;;;;;8.73;65.85;100718.22;10347894;28;20060;-65
2021/10/26 22:33:23;;;;;;;10.32;3.38;;;;;;;8.65;65.75;100715.06;10348119;28;20455;-66
2021/10/26 22:38:25;;;;;;;7.10;3.05;;;;;;;8.49;66.23;100714.84;10346299;28;20056;-66
2021/10/26 22:43:27;;;;;;;6.15;3.10;;;;;;;8.42;66.26;100715.13;10345128;28;20054;-66
2021/10/26 22:48:29;;;;;;;8.70;4.20;;;;;;;8.28;66.10;100707.00;10347547;28;20042;-64
2021/10/26 22:53:34;;;;;;;7.70;3.70;;;;;;;8.09;66.63;100714.63;10348074;28;20054;-64
2021/10/26 22:58:35;;;;;;;11.35;4.93;;;;;;;7.95;66.69;100709.06;10347078;28;20060;-64
2021/10/26 23:03:37;;;;;;;8.60;3.92;;;;;;;7.98;66.88;100716.75;10347683;28;20077;-64
2021/10/26 23:08:39;;;;;;;11.10;4.15;;;;;;;8.01;66.59;100712.31;10347549;28;20045;-64
2021/10/26 23:13:42;;;;;;;7.60;3.95;;;;;;;7.93;66.55;100710.88;10346530;28;20195;-66
2021/10/26 23:18:43;;;;;;;10.52;4.45;;;;;;;7.94;67.53;100702.16;10346518;28;20056;-64
2021/10/26 23:23:45;;;;;;;11.55;4.00;;;;;;;8.16;67.05;100697.88;10345508;28;20140;-65
2021/10/26 23:28:47;;;;;;;12.65;4.63;;;;;;;8.24;66.84;100708.84;10346741;28;20144;-64
2021/10/26 23:33:48;;;;;;;9.38;3.55;;;;;;;8.22;66.59;100708.06;10345886;28;20053;-65
2021/10/26 23:38:50;;;;;;;9.05;4.57;;;;;;;8.03;67.15;100718.31;10346947;28;20137;-64
2021/10/26 23:43:52;;;;;;;7.05;4.05;;;;;;;8.21;67.27;100713.34;10346352;28;20552;-64
2021/10/26 23:48:53;;;;;;;9.43;4.10;;;;;;;8.49;66.64;100713.97;10347666;28;20050;-64
2021/10/26 23:53:55;;;;;;;8.40;4.20;;;;;;;8.38;65.82;100709.22;10347254;28;20065;-64
2021/10/26 23:58:57;;;;;;;6.32;3.80;;;;;;;8.12;66.06;100722.34;10346381;28;20496;-64
